createdAt,value
2023-04-02T00:01:16.547Z,8.00
2023-04-02T00:03:44.499Z,7.90
2023-04-02T00:06:40.467Z,9.60
2023-04-02T00:09:14.203Z,7.80
2023-04-02T00:12:15.511Z,9.60
2023-04-02T00:14:49.550Z,7.70
2023-04-02T00:17:17.267Z,10.30
2023-04-02T00:20:08.228Z,8.10
2023-04-02T00:22:44.056Z,8.10
2023-04-02T00:25:14.079Z,7.70
2023-04-02T00:27:42.289Z,7.70
2023-04-02T00:30:13.128Z,7.90
2023-04-02T00:32:40.940Z,7.70
2023-04-02T00:35:18.807Z,7.70
2023-04-02T00:37:46.597Z,10.20
2023-04-02T00:40:24.813Z,7.90
2023-04-02T00:42:55.721Z,7.90
2023-04-02T00:45:31.968Z,8.60
2023-04-02T00:48:13.222Z,8.30
2023-04-02T00:50:42.899Z,9.30
2023-04-02T00:53:18.843Z,8.50
2023-04-02T00:55:46.451Z,9.40
2023-04-02T00:58:35.609Z,10.10
2023-04-02T01:01:04.557Z,8.50
2023-04-02T01:03:36.388Z,7.60
2023-04-02T01:06:12.826Z,7.60
2023-04-02T01:08:55.809Z,7.40
2023-04-02T01:11:46.503Z,7.60
2023-04-02T01:14:44.041Z,7.40
2023-04-02T01:17:38.922Z,7.30
2023-04-02T01:20:37.384Z,8.40
2023-04-02T01:23:11.493Z,7.50
2023-04-02T01:25:38.882Z,7.30
2023-04-02T01:28:19.758Z,9.00
2023-04-02T01:30:56.832Z,7.40
2023-04-02T01:33:33.785Z,7.80
2023-04-02T01:36:39.013Z,7.30
2023-04-02T01:39:12.639Z,7.30
2023-04-02T01:41:43.882Z,7.60
2023-04-02T01:44:18.997Z,7.40
2023-04-02T01:46:49.111Z,7.40
2023-04-02T01:49:21.397Z,7.60
2023-04-02T01:51:56.818Z,8.60
2023-04-02T01:54:28.931Z,7.10
2023-04-02T01:56:59.423Z,9.40
2023-04-02T01:59:29.009Z,6.80
2023-04-02T02:02:06.706Z,7.10
2023-04-02T02:04:37.589Z,7.50
2023-04-02T02:07:15.058Z,7.70
2023-04-02T02:09:44.985Z,9.70
2023-04-02T02:12:16.219Z,7.10
2023-04-02T02:14:52.261Z,8.10
2023-04-02T02:17:34.658Z,7.20
2023-04-02T02:20:12.213Z,7.10
2023-04-02T02:22:46.299Z,7.30
2023-04-02T02:25:24.217Z,6.80
2023-04-02T02:28:07.932Z,6.80
2023-04-02T02:30:58.646Z,7.00
2023-04-02T02:33:48.953Z,7.60
2023-04-02T02:36:27.239Z,7.10
2023-04-02T02:38:57.682Z,8.40
2023-04-02T02:42:04.352Z,7.20
2023-04-02T02:44:44.392Z,8.80
2023-04-02T02:47:14.462Z,7.20
2023-04-02T02:49:45.898Z,6.10
2023-04-02T02:52:35.959Z,8.20
2023-04-02T02:55:19.624Z,7.50
2023-04-02T02:58:09.047Z,6.80
2023-04-02T03:00:45.760Z,8.70
2023-04-02T03:03:23.246Z,6.70
2023-04-02T03:05:57.882Z,7.10
2023-04-02T03:09:02.312Z,7.20
2023-04-02T03:11:53.666Z,8.00
2023-04-02T03:14:40.102Z,6.70
2023-04-02T03:17:21.398Z,6.70
2023-04-02T03:20:17.553Z,6.70
2023-04-02T03:23:04.022Z,6.60
2023-04-02T03:25:50.585Z,6.70
2023-04-02T03:28:23.068Z,6.60
2023-04-02T03:30:58.097Z,6.70
2023-04-02T03:33:27.765Z,6.70
2023-04-02T03:36:13.062Z,6.50
2023-04-02T03:38:47.077Z,6.50
2023-04-02T03:41:32.768Z,6.50
2023-04-02T03:44:02.233Z,6.50
2023-04-02T03:46:42.070Z,6.30
2023-04-02T03:49:40.978Z,6.40
2023-04-02T03:52:18.117Z,6.80
2023-04-02T03:54:59.684Z,8.20
2023-04-02T03:57:42.390Z,7.50
2023-04-02T04:00:28.956Z,6.50
2023-04-02T04:03:05.141Z,6.50
2023-04-02T04:05:35.619Z,7.70
2023-04-02T04:08:08.856Z,6.80
2023-04-02T04:10:36.512Z,6.40
2023-04-02T04:13:18.566Z,8.20
2023-04-02T04:15:46.186Z,8.50
2023-04-02T04:18:49.220Z,7.60
2023-04-02T04:21:40.163Z,6.50
2023-04-02T04:24:23.305Z,6.60
2023-04-02T04:27:03.975Z,6.50
2023-04-02T04:29:54.132Z,6.30
2023-04-02T04:32:32.050Z,6.30
2023-04-02T04:35:23.505Z,7.90
2023-04-02T04:38:07.752Z,6.70
2023-04-02T04:40:41.846Z,6.10
2023-04-02T04:43:18.264Z,8.20
2023-04-02T04:45:58.248Z,7.60
2023-04-02T04:49:14.111Z,7.90
2023-04-02T04:51:48.090Z,6.20
2023-04-02T04:54:17.108Z,6.50
2023-04-02T04:56:51.733Z,6.90
2023-04-02T04:59:25.813Z,5.20
2023-04-02T05:01:57.353Z,8.10
2023-04-02T05:04:33.593Z,6.10
2023-04-02T05:07:07.605Z,7.20
2023-04-02T05:10:02.442Z,5.70
2023-04-02T05:12:54.788Z,5.90
2023-04-02T05:15:54.935Z,5.90
2023-04-02T05:18:34.812Z,5.80
2023-04-02T05:21:14.273Z,8.40
2023-04-02T05:23:45.420Z,8.30
2023-04-02T05:26:25.252Z,6.30
2023-04-02T05:28:59.694Z,5.70
2023-04-02T05:31:31.162Z,7.10
2023-04-02T05:33:58.914Z,7.60
2023-04-02T05:36:29.609Z,5.60
2023-04-02T05:39:00.684Z,7.00
2023-04-02T05:41:47.578Z,6.80
2023-04-02T05:44:43.056Z,7.50
2023-04-02T05:47:22.859Z,5.30
2023-04-02T05:50:05.698Z,5.60
2023-04-02T05:52:43.800Z,5.40
2023-04-02T05:55:17.224Z,6.20
2023-04-02T05:58:21.322Z,6.80
2023-04-02T06:01:15.612Z,5.40
2023-04-02T06:04:28.970Z,5.50
2023-04-02T06:07:16.672Z,5.70
2023-04-02T06:10:00.709Z,5.60
2023-04-02T06:12:35.833Z,5.60
2023-04-02T06:15:06.783Z,6.70
2023-04-02T06:17:47.059Z,5.70
2023-04-02T06:20:17.748Z,6.10
2023-04-02T06:22:52.052Z,5.30
2023-04-02T06:25:28.360Z,5.30
2023-04-02T06:27:59.861Z,5.40
2023-04-02T06:30:38.737Z,6.30
2023-04-02T06:33:08.077Z,5.10
2023-04-02T06:35:40.602Z,5.80
2023-04-02T06:38:20.358Z,6.00
2023-04-02T06:40:55.840Z,8.20
2023-04-02T06:43:40.199Z,5.50
2023-04-02T06:46:46.979Z,5.50
2023-04-02T06:49:40.368Z,7.70
2023-04-02T06:52:20.416Z,5.40
2023-04-02T06:54:48.662Z,5.50
2023-04-02T06:57:17.522Z,6.10
2023-04-02T06:59:47.703Z,5.50
2023-04-02T07:02:41.023Z,7.30
2023-04-02T07:05:11.927Z,6.40
2023-04-02T07:07:44.829Z,5.20
2023-04-02T07:10:13.342Z,6.80
2023-04-02T07:12:40.826Z,5.50
2023-04-02T07:15:16.306Z,6.30
2023-04-02T07:17:43.999Z,7.00
2023-04-02T07:20:32.741Z,6.10
2023-04-02T07:23:04.552Z,6.10
2023-04-02T07:25:31.909Z,5.30
2023-04-02T07:27:59.578Z,5.50
2023-04-02T07:30:27.008Z,6.70
2023-04-02T07:32:54.643Z,5.40
2023-04-02T07:35:22.776Z,5.50
2023-04-02T07:37:50.611Z,5.30
2023-04-02T07:40:21.952Z,7.40
2023-04-02T07:42:49.999Z,5.20
2023-04-02T07:45:17.497Z,6.70
2023-04-02T07:47:45.112Z,7.30
2023-04-02T07:50:12.860Z,6.70
2023-04-02T07:52:44.677Z,7.60
2023-04-02T07:55:14.036Z,7.40
2023-04-02T07:57:49.343Z,7.90
2023-04-02T08:00:17.886Z,5.50
2023-04-02T08:02:45.908Z,5.50
2023-04-02T08:05:13.492Z,5.50
2023-04-02T08:07:41.713Z,6.20
2023-04-02T08:10:11.768Z,6.40
2023-04-02T08:12:39.194Z,7.50
2023-04-02T08:15:07.374Z,5.40
2023-04-02T08:17:34.797Z,5.50
2023-04-02T08:20:02.313Z,5.70
2023-04-02T08:22:30.621Z,5.70
2023-04-02T08:24:58.169Z,5.50
2023-04-02T08:27:26.378Z,6.40
2023-04-02T08:29:53.811Z,7.40
2023-04-02T08:32:22.088Z,5.60
2023-04-02T08:34:50.078Z,6.30
2023-04-02T08:37:18.499Z,6.20
2023-04-02T08:39:46.640Z,5.30
2023-04-02T08:42:43.123Z,4.80
2023-04-02T08:45:24.940Z,5.80
2023-04-02T08:48:09.292Z,5.90
2023-04-02T08:50:42.235Z,5.90
2023-04-02T08:53:45.033Z,6.50
2023-04-02T08:56:31.018Z,6.20
2023-04-02T08:59:02.820Z,6.10
2023-04-02T09:01:53.100Z,6.20
2023-04-02T09:04:23.449Z,6.30
2023-04-02T09:06:53.664Z,6.20
2023-04-02T09:09:22.371Z,8.20
2023-04-02T09:11:54.163Z,6.20
2023-04-02T09:14:45.763Z,6.30
2023-04-02T09:17:18.892Z,8.60
2023-04-02T09:19:58.623Z,7.30
2023-04-02T09:22:28.446Z,4.70
2023-04-02T09:25:01.600Z,6.40
2023-04-02T09:27:32.369Z,6.70
2023-04-02T09:30:29.723Z,6.40
2023-04-02T09:33:02.099Z,6.40
2023-04-02T09:35:32.409Z,7.00
2023-04-02T09:38:30.674Z,6.80
2023-04-02T09:41:05.732Z,6.50
2023-04-02T09:43:38.407Z,5.20
2023-04-02T09:46:14.051Z,8.40
2023-04-02T09:48:45.773Z,6.20
2023-04-02T09:51:21.470Z,6.50
2023-04-02T09:54:08.306Z,6.40
2023-04-02T09:56:40.494Z,6.60
2023-04-02T09:59:15.432Z,6.30
2023-04-02T10:01:57.056Z,6.20
2023-04-02T10:04:45.296Z,7.00
2023-04-02T10:07:34.793Z,8.50
2023-04-02T10:10:30.949Z,7.00
2023-04-02T10:13:09.816Z,7.30
2023-04-02T10:15:56.573Z,7.40
2023-04-02T10:18:42.113Z,7.40
2023-04-02T10:21:12.972Z,7.80
2023-04-02T10:23:40.564Z,7.90
2023-04-02T10:26:47.338Z,7.50
2023-04-02T10:29:49.316Z,7.90
2023-04-02T10:32:25.593Z,7.90
2023-04-02T10:35:11.617Z,7.90
2023-04-02T10:37:54.490Z,8.80
2023-04-02T10:40:30.875Z,8.30
2023-04-02T10:43:17.000Z,6.30
2023-04-02T10:45:56.515Z,8.10
2023-04-02T10:48:52.508Z,8.10
2023-04-02T10:51:29.416Z,8.20
2023-04-02T10:54:21.882Z,8.10
2023-04-02T10:56:53.284Z,8.30
2023-04-02T10:59:30.221Z,9.30
2023-04-02T11:02:01.018Z,8.40
2023-04-02T11:04:36.000Z,10.00
2023-04-02T11:07:14.302Z,9.80
2023-04-02T11:09:47.365Z,8.50
2023-04-02T11:12:26.283Z,8.70
2023-04-02T11:14:55.406Z,9.10
2023-04-02T11:17:25.031Z,8.50
2023-04-02T11:19:52.974Z,8.80
2023-04-02T11:22:24.862Z,8.70
2023-04-02T11:24:57.196Z,10.80
2023-04-02T11:27:31.480Z,8.60
2023-04-02T11:30:23.010Z,7.20
2023-04-02T11:32:51.437Z,8.80
2023-04-02T11:35:30.937Z,8.80
2023-04-02T11:38:23.372Z,8.90
2023-04-02T11:40:54.810Z,9.10
2023-04-02T11:43:34.659Z,9.20
2023-04-02T11:46:31.382Z,9.50
2023-04-02T11:49:51.100Z,9.30
2023-04-02T11:52:24.908Z,9.30
2023-04-02T11:55:06.082Z,9.20
2023-04-02T11:57:57.805Z,9.30
2023-04-02T12:00:45.500Z,9.40
2023-04-02T12:03:13.769Z,9.50
2023-04-02T12:05:54.708Z,9.30
2023-04-02T12:08:37.757Z,9.50
2023-04-02T12:11:09.638Z,9.50
2023-04-02T12:13:40.103Z,11.90
2023-04-02T12:16:14.735Z,9.60
2023-04-02T12:18:43.938Z,9.60
2023-04-02T12:21:19.977Z,9.60
2023-04-02T12:23:50.696Z,9.70
2023-04-02T12:26:32.295Z,9.70
2023-04-02T12:29:28.750Z,9.90
2023-04-02T12:32:30.837Z,9.90
2023-04-02T12:34:58.914Z,8.50
2023-04-02T12:37:29.865Z,10.00
2023-04-02T12:40:16.675Z,9.80
2023-04-02T12:42:44.127Z,9.90
2023-04-02T12:45:22.707Z,9.80
2023-04-02T12:47:50.769Z,10.60
2023-04-02T12:50:21.724Z,10.10
2023-04-02T12:52:55.200Z,10.00
2023-04-02T12:55:25.098Z,9.90
2023-04-02T12:57:59.897Z,10.00
2023-04-02T13:00:32.197Z,10.10
2023-04-02T13:03:20.735Z,10.70
2023-04-02T13:10:00.849Z,10.40
2023-04-02T13:12:32.669Z,10.50
2023-04-02T13:15:03.312Z,10.70
2023-04-02T13:17:47.919Z,10.80
2023-04-02T13:20:27.755Z,10.50
2023-04-02T13:22:55.608Z,11.10
2023-04-02T13:25:30.970Z,10.60
2023-04-02T13:27:59.016Z,10.70
2023-04-02T13:30:28.970Z,11.20
2023-04-02T13:32:56.609Z,10.50
2023-04-02T13:35:24.141Z,12.40
2023-04-02T13:37:51.764Z,10.50
2023-04-02T13:40:19.701Z,10.50
2023-04-02T13:42:49.549Z,10.50
2023-04-02T13:45:29.055Z,10.60
2023-04-02T13:48:01.253Z,10.60
2023-04-02T13:50:31.021Z,10.60
2023-04-02T13:53:04.492Z,10.70
2023-04-02T13:55:37.703Z,11.20
2023-04-02T13:58:05.412Z,11.50
2023-04-02T14:00:36.710Z,12.90
2023-04-02T14:03:10.089Z,10.70
2023-04-02T14:06:13.416Z,11.40
2023-04-02T14:08:49.690Z,11.00
2023-04-02T14:11:29.294Z,11.00
2023-04-02T14:14:19.378Z,10.90
2023-04-02T14:17:05.560Z,11.20
2023-04-02T14:19:58.330Z,11.10
2023-04-02T14:22:50.570Z,11.10
2023-04-02T14:25:23.845Z,12.90
2023-04-02T14:28:06.832Z,11.00
2023-04-02T14:34:54.631Z,11.00
2023-04-02T14:46:34.885Z,12.60
2023-04-02T14:49:16.341Z,11.10
2023-04-02T14:52:04.856Z,11.00
2023-04-02T14:55:04.303Z,11.00
2023-04-02T14:57:41.887Z,11.20
2023-04-02T15:00:33.981Z,11.20
2023-04-02T15:07:24.197Z,12.50
2023-04-02T15:10:02.518Z,11.10
2023-04-02T15:12:36.021Z,11.10
2023-04-02T15:15:47.511Z,11.20
2023-04-02T15:18:17.270Z,11.10
2023-04-02T15:20:50.893Z,12.20
2023-04-02T15:23:40.075Z,11.00
2023-04-02T15:26:30.887Z,11.10
2023-04-02T15:30:41.806Z,11.00
2023-04-02T15:33:33.639Z,11.10
2023-04-02T15:36:11.818Z,11.00
2023-04-02T15:39:17.846Z,9.50
2023-04-02T15:42:02.622Z,10.80
2023-04-02T15:44:30.375Z,11.30
2023-04-02T15:47:15.962Z,10.80
2023-04-02T15:49:51.051Z,10.70
2023-04-02T15:52:37.367Z,10.70
2023-04-02T15:59:45.153Z,10.70
2023-04-02T16:02:37.701Z,10.50
2023-04-02T16:05:11.259Z,10.60
2023-04-02T16:11:43.764Z,10.50
2023-04-02T16:14:24.112Z,10.90
2023-04-02T16:16:53.285Z,10.50
2023-04-02T16:23:42.701Z,10.30
2023-04-02T16:30:08.500Z,10.10
2023-04-02T16:32:56.694Z,10.30
2023-04-02T16:39:47.203Z,10.10
2023-04-02T16:46:38.785Z,10.10
2023-04-02T16:49:42.672Z,10.40
2023-04-02T16:52:47.197Z,9.90
2023-04-02T16:55:29.808Z,9.80
2023-04-02T16:58:26.590Z,10.30
2023-04-02T17:01:04.884Z,9.80
2023-04-02T17:03:58.076Z,10.70
2023-04-02T17:06:47.856Z,9.80
2023-04-02T17:10:24.558Z,9.60
2023-04-02T17:13:18.072Z,9.60
2023-04-02T17:16:00.479Z,9.70
2023-04-02T17:18:28.016Z,9.50
2023-04-02T17:21:00.628Z,9.50
2023-04-02T17:23:29.711Z,10.90
2023-04-02T17:30:41.216Z,9.30
2023-04-02T17:37:52.677Z,9.80
2023-04-02T17:48:46.841Z,9.50
2023-04-02T17:52:23.598Z,9.10
2023-04-02T17:59:05.392Z,9.00
2023-04-02T18:06:11.862Z,8.90
2023-04-02T18:08:42.491Z,8.80
2023-04-02T18:11:13.651Z,9.30
2023-04-02T18:13:53.748Z,8.80
2023-04-02T18:16:42.516Z,9.00
2023-04-02T18:19:40.488Z,8.60
2023-04-02T18:22:19.245Z,8.70
2023-04-02T18:25:10.866Z,8.60
2023-04-02T18:28:16.717Z,9.50
2023-04-02T18:40:32.458Z,8.30
2023-04-02T18:46:51.335Z,8.10
2023-04-02T18:49:45.024Z,8.20
2023-04-02T18:52:17.369Z,7.40
2023-04-02T18:56:11.967Z,7.80
2023-04-02T18:59:13.600Z,8.20
2023-04-02T19:01:45.982Z,8.00
2023-04-02T19:04:28.924Z,8.10
2023-04-02T19:11:02.295Z,8.70
2023-04-02T19:13:33.329Z,9.00
2023-04-02T19:16:35.860Z,9.60
2023-04-02T19:27:47.671Z,7.70
2023-04-02T19:30:39.907Z,7.60
2023-04-02T19:37:20.099Z,7.50
2023-04-02T19:39:57.473Z,7.50
2023-04-02T19:42:46.440Z,7.50
2023-04-02T19:45:19.777Z,9.10
2023-04-02T19:47:58.764Z,9.10
2023-04-02T19:55:02.540Z,7.10
2023-04-02T19:57:29.997Z,7.60
2023-04-02T19:59:57.492Z,7.20
2023-04-02T20:02:25.435Z,7.70
2023-04-02T20:04:53.137Z,7.60
2023-04-02T20:07:20.868Z,7.50
2023-04-02T20:09:49.452Z,8.10
2023-04-02T20:12:20.763Z,7.20
2023-04-02T20:19:18.391Z,7.20
2023-04-02T20:26:15.158Z,7.70
2023-04-02T20:28:42.770Z,7.20
2023-04-02T20:31:12.997Z,5.60
2023-04-02T20:33:44.234Z,7.10
2023-04-02T20:36:14.619Z,7.70
2023-04-02T20:38:42.236Z,9.60
2023-04-02T20:41:10.926Z,8.70
2023-04-02T20:43:40.828Z,7.40
2023-04-02T20:46:10.863Z,7.40
2023-04-02T20:48:46.944Z,7.30
2023-04-02T20:51:16.621Z,7.00
2023-04-02T20:53:46.649Z,7.20
2023-04-02T20:56:17.564Z,7.90
2023-04-02T20:58:45.338Z,7.20
2023-04-02T21:01:24.953Z,7.50
2023-04-02T21:05:44.850Z,6.80
2023-04-02T21:08:13.342Z,6.80
2023-04-02T21:10:41.312Z,6.70
2023-04-02T21:13:08.768Z,8.80
2023-04-02T21:15:42.992Z,6.60
2023-04-02T21:18:11.638Z,8.80
2023-04-02T21:20:39.124Z,8.50
2023-04-02T21:23:06.491Z,8.90
2023-04-02T21:25:34.228Z,7.80
2023-04-02T21:28:01.952Z,6.50
2023-04-02T21:30:29.520Z,6.20
2023-04-02T21:32:57.711Z,6.50
2023-04-02T21:35:25.236Z,8.30
2023-04-02T21:37:52.650Z,5.80
2023-04-02T21:40:20.263Z,8.10
2023-04-02T21:42:47.764Z,6.50
2023-04-02T21:45:15.488Z,8.00
2023-04-02T21:47:44.058Z,6.40
2023-04-02T21:50:11.579Z,8.60
2023-04-02T21:52:39.032Z,6.30
2023-04-02T21:55:06.729Z,7.90
2023-04-02T21:57:34.187Z,6.20
2023-04-02T22:00:01.596Z,7.70
2023-04-02T22:02:32.022Z,7.00
2023-04-02T22:04:59.593Z,6.40
2023-04-02T22:07:27.036Z,7.20
2023-04-02T22:09:54.496Z,6.30
2023-04-02T22:12:21.968Z,8.00
2023-04-02T22:14:49.355Z,5.60
2023-04-02T22:17:16.830Z,8.00
2023-04-02T22:19:44.303Z,4.30
2023-04-02T22:22:11.723Z,7.80
2023-04-02T22:24:39.093Z,8.00
2023-04-02T22:27:06.527Z,5.90
2023-04-02T22:29:34.230Z,7.30
2023-04-02T22:32:01.717Z,5.90
2023-04-02T22:43:34.523Z,5.80
2023-04-02T22:46:02.872Z,7.00
2023-04-02T22:48:30.649Z,7.50
2023-04-02T22:50:58.044Z,6.50
2023-04-02T22:53:25.908Z,8.30
2023-04-02T22:55:53.465Z,5.70
2023-04-02T22:58:21.165Z,6.10
2023-04-02T23:00:48.918Z,7.10
2023-04-02T23:03:16.371Z,7.50
2023-04-02T23:06:24.571Z,7.80
2023-04-02T23:08:52.382Z,6.10
2023-04-02T23:11:22.620Z,6.90
2023-04-02T23:13:51.981Z,6.30
2023-04-02T23:16:20.321Z,5.70
2023-04-02T23:18:58.447Z,8.10
2023-04-02T23:30:34.924Z,5.30
2023-04-02T23:33:05.573Z,5.20
2023-04-02T23:35:33.372Z,6.70
2023-04-02T23:38:00.849Z,6.20
2023-04-02T23:40:28.217Z,6.90
2023-04-02T23:42:55.691Z,4.70
2023-04-02T23:45:23.130Z,6.60
2023-04-02T23:47:50.961Z,5.20
2023-04-02T23:50:18.561Z,6.50
2023-04-02T23:52:45.974Z,6.70
2023-04-02T23:59:45.700Z,5.10
